createdAt,value
2023-04-25T00:01:41.266Z,6.80
2023-04-25T00:04:09.020Z,6.79
2023-04-25T00:06:37.399Z,6.76
2023-04-25T00:09:11.301Z,6.65
2023-04-25T00:11:38.234Z,6.57
2023-04-25T00:14:06.572Z,6.53
2023-04-25T00:16:35.075Z,6.49
2023-04-25T00:19:04.219Z,6.45
2023-04-25T00:21:32.707Z,6.45
2023-04-25T00:24:00.405Z,6.48
2023-04-25T00:26:27.448Z,6.42
2023-04-25T00:28:55.633Z,6.44
2023-04-25T00:31:22.340Z,6.36
2023-04-25T00:33:50.327Z,6.32
2023-04-25T00:36:18.737Z,6.42
2023-04-25T00:38:45.347Z,6.31
2023-04-25T00:41:11.950Z,6.26
2023-04-25T00:43:39.095Z,6.31
2023-04-25T00:46:05.776Z,6.32
2023-04-25T00:48:32.439Z,6.25
2023-04-25T00:51:00.205Z,6.35
2023-04-25T00:53:28.491Z,6.34
2023-04-25T00:55:55.794Z,6.49
2023-04-25T00:58:23.316Z,6.49
2023-04-25T01:00:53.243Z,6.55
2023-04-25T01:03:23.850Z,6.59
2023-04-25T01:05:52.046Z,6.66
2023-04-25T01:08:18.572Z,6.77
2023-04-25T01:10:45.217Z,6.79
2023-04-25T01:13:11.961Z,6.93
2023-04-25T01:15:38.636Z,6.84
2023-04-25T01:18:06.602Z,7.03
2023-04-25T01:20:33.692Z,7.01
2023-04-25T01:23:01.465Z,6.99
2023-04-25T01:25:28.158Z,7.07
2023-04-25T01:27:54.930Z,7.04
2023-04-25T01:30:21.578Z,7.14
2023-04-25T01:32:49.353Z,7.11
2023-04-25T01:35:16.114Z,7.13
2023-04-25T01:37:44.274Z,7.07
2023-04-25T01:40:12.451Z,7.10
2023-04-25T01:42:41.986Z,7.07
2023-04-25T01:45:09.818Z,7.03
2023-04-25T01:47:36.552Z,6.94
2023-04-25T01:50:05.454Z,6.82
2023-04-25T01:52:32.089Z,6.89
2023-04-25T01:55:00.703Z,6.80
2023-04-25T01:57:27.371Z,6.80
2023-04-25T01:59:59.901Z,6.82
2023-04-25T02:02:27.772Z,6.82
2023-04-25T02:04:55.711Z,6.77
2023-04-25T02:07:22.245Z,6.66
2023-04-25T02:09:50.740Z,6.56
2023-04-25T02:12:17.377Z,6.59
2023-04-25T02:14:44.085Z,6.72
2023-04-25T02:17:13.899Z,6.68
2023-04-25T02:19:40.783Z,6.76
2023-04-25T02:22:07.454Z,6.76
2023-04-25T02:24:35.038Z,6.80
2023-04-25T02:27:03.459Z,6.77
2023-04-25T02:29:32.328Z,6.87
2023-04-25T02:31:59.001Z,6.82
2023-04-25T02:34:25.688Z,6.84
2023-04-25T02:36:52.367Z,6.80
2023-04-25T02:39:19.173Z,6.79
2023-04-25T02:41:46.682Z,6.73
2023-04-25T02:44:13.461Z,6.76
2023-04-25T02:46:40.686Z,6.82
2023-04-25T02:49:09.985Z,6.80
2023-04-25T02:51:38.958Z,6.82
2023-04-25T02:54:06.805Z,6.86
2023-04-25T02:56:33.446Z,6.87
2023-04-25T02:59:00.057Z,6.89
2023-04-25T03:01:26.723Z,6.86
2023-04-25T03:03:55.316Z,6.84
2023-04-25T03:06:22.379Z,6.80
2023-04-25T03:08:48.995Z,6.86
2023-04-25T03:11:15.619Z,6.86
2023-04-25T03:13:42.323Z,6.89
2023-04-25T03:16:09.052Z,6.93
2023-04-25T03:18:35.700Z,6.90
2023-04-25T03:21:02.331Z,6.94
2023-04-25T03:23:28.925Z,6.86
2023-04-25T03:25:55.600Z,6.87
2023-04-25T03:28:25.430Z,6.82
2023-04-25T03:30:52.633Z,6.76
2023-04-25T03:33:19.225Z,6.80
2023-04-25T03:35:46.947Z,6.89
2023-04-25T03:38:14.592Z,6.79
2023-04-25T03:40:41.590Z,6.80
2023-04-25T03:43:09.520Z,6.82
2023-04-25T03:45:36.302Z,6.73
2023-04-25T03:48:03.116Z,6.83
2023-04-25T03:50:29.770Z,6.86
2023-04-25T03:52:56.371Z,6.82
2023-04-25T03:55:23.091Z,6.87
2023-04-25T03:57:49.769Z,6.90
2023-04-25T04:00:16.576Z,6.87
2023-04-25T04:02:45.318Z,6.99
2023-04-25T04:05:12.344Z,6.93
2023-04-25T04:07:41.275Z,6.87
2023-04-25T04:10:13.643Z,6.87
2023-04-25T04:12:40.620Z,6.84
2023-04-25T04:15:08.876Z,6.89
2023-04-25T04:17:36.674Z,6.90
2023-04-25T04:20:04.833Z,6.86
2023-04-25T04:22:31.529Z,6.96
2023-04-25T04:24:58.725Z,6.89
2023-04-25T04:27:25.441Z,6.89
2023-04-25T04:29:53.479Z,6.92
2023-04-25T04:32:20.181Z,6.99
2023-04-25T04:34:48.537Z,7.00
2023-04-25T04:37:16.046Z,6.92
2023-04-25T04:39:42.743Z,6.96
2023-04-25T04:42:10.067Z,6.94
2023-04-25T04:44:37.834Z,7.03
2023-04-25T04:47:07.297Z,7.04
2023-04-25T04:49:34.895Z,7.05
2023-04-25T04:52:01.901Z,7.18
2023-04-25T04:54:28.822Z,7.18
2023-04-25T04:56:57.280Z,7.14
2023-04-25T04:59:23.869Z,7.24
2023-04-25T05:01:51.827Z,7.21
2023-04-25T05:04:18.508Z,7.14
2023-04-25T05:06:48.650Z,7.35
2023-04-25T05:09:16.438Z,7.05
2023-04-25T05:11:43.042Z,7.11
2023-04-25T05:14:09.656Z,7.08
2023-04-25T05:16:37.491Z,7.07
2023-04-25T05:19:04.074Z,7.05
2023-04-25T05:21:32.549Z,7.05
2023-04-25T05:23:59.185Z,6.99
2023-04-25T05:26:25.956Z,7.03
2023-04-25T05:28:52.554Z,7.01
2023-04-25T05:31:19.121Z,6.93
2023-04-25T05:33:45.763Z,7.10
2023-04-25T05:36:12.353Z,7.21
2023-04-25T05:38:39.333Z,7.21
2023-04-25T05:41:08.514Z,7.25
2023-04-25T05:43:35.208Z,7.34
2023-04-25T05:46:02.230Z,7.30
2023-04-25T05:48:33.591Z,7.32
2023-04-25T05:51:00.237Z,7.34
2023-04-25T05:53:27.051Z,7.38
2023-04-25T05:55:53.862Z,7.38
2023-04-25T05:58:20.657Z,7.48
2023-04-25T06:00:47.482Z,7.50
2023-04-25T06:03:19.548Z,7.48
2023-04-25T06:05:47.403Z,7.48
2023-04-25T06:08:14.080Z,7.48
2023-04-25T06:10:40.909Z,7.51
2023-04-25T06:13:07.573Z,7.56
2023-04-25T06:15:35.387Z,7.58
2023-04-25T06:18:02.263Z,7.75
2023-04-25T06:20:29.271Z,7.68
2023-04-25T06:22:55.972Z,7.82
2023-04-25T06:25:22.577Z,7.89
2023-04-25T06:27:49.262Z,7.92
2023-04-25T06:33:41.127Z,7.97
2023-04-25T06:36:08.063Z,8.00
2023-04-25T06:38:35.980Z,8.23
2023-04-25T06:41:02.886Z,8.38
2023-04-25T06:43:29.976Z,8.38
2023-04-25T06:45:57.258Z,8.57
2023-04-25T06:48:23.868Z,8.54
2023-04-25T06:50:50.543Z,8.45
2023-04-25T06:53:17.156Z,8.57
2023-04-25T06:55:43.742Z,8.41
2023-04-25T06:58:10.398Z,8.51
2023-04-25T07:00:37.573Z,8.68
2023-04-25T07:03:04.520Z,8.62
2023-04-25T07:05:31.250Z,8.61
2023-04-25T07:07:58.960Z,8.57
2023-04-25T07:10:26.366Z,8.75
2023-04-25T07:12:53.031Z,8.72
2023-04-25T07:15:19.722Z,8.86
2023-04-25T07:17:46.472Z,8.82
2023-04-25T07:20:13.661Z,8.50
2023-04-25T07:22:40.266Z,8.62
2023-04-25T07:25:07.537Z,8.85
2023-04-25T07:27:34.196Z,8.57
2023-04-25T07:30:00.872Z,8.55
2023-04-25T07:32:28.106Z,8.36
2023-04-25T07:34:54.780Z,8.50
2023-04-25T07:37:21.587Z,8.53
2023-04-25T07:39:48.595Z,8.51
2023-04-25T07:42:15.717Z,8.82
2023-04-25T07:44:43.853Z,8.92
2023-04-25T07:47:10.902Z,8.88
2023-04-25T07:49:38.445Z,8.99
2023-04-25T07:52:07.261Z,9.02
2023-04-25T07:54:33.932Z,9.43
2023-04-25T07:57:00.924Z,9.85
2023-04-25T07:59:29.998Z,10.18
2023-04-25T08:01:58.602Z,10.23
2023-04-25T08:04:26.879Z,10.23
2023-04-25T08:06:55.033Z,10.16
2023-04-25T08:09:23.258Z,10.39
2023-04-25T08:11:50.097Z,10.02
2023-04-25T08:14:16.807Z,9.54
2023-04-25T08:16:43.548Z,9.34
2023-04-25T08:19:11.454Z,9.19
2023-04-25T08:21:38.143Z,9.18
2023-04-25T08:24:05.170Z,9.20
2023-04-25T08:26:31.854Z,9.36
2023-04-25T08:28:58.560Z,9.37
2023-04-25T08:31:26.435Z,9.13
2023-04-25T08:33:53.242Z,8.96
2023-04-25T08:36:37.928Z,8.93
2023-04-25T08:39:05.814Z,8.99
2023-04-25T08:41:32.876Z,8.82
2023-04-25T08:44:02.169Z,8.85
2023-04-25T08:46:29.875Z,8.81
2023-04-25T08:49:02.001Z,8.83
2023-04-25T08:51:32.934Z,8.88
2023-04-25T08:54:30.961Z,8.93
2023-04-25T08:56:59.164Z,8.82
2023-04-25T08:59:26.674Z,8.89
2023-04-25T09:01:53.323Z,9.01
2023-04-25T09:04:21.540Z,9.26
2023-04-25T09:06:49.212Z,9.46
2023-04-25T09:09:16.079Z,9.48
2023-04-25T09:11:43.914Z,10.05
2023-04-25T09:14:15.241Z,10.28
2023-04-25T09:17:14.469Z,11.27
2023-04-25T09:19:42.247Z,10.69
2023-04-25T09:22:10.856Z,10.33
2023-04-25T09:24:40.077Z,10.16
2023-04-25T09:27:19.034Z,9.75
2023-04-25T09:29:45.805Z,9.87
2023-04-25T09:32:24.538Z,9.81
2023-04-25T09:34:56.677Z,10.01
2023-04-25T09:37:26.377Z,9.97
2023-04-25T09:39:56.857Z,10.32
2023-04-25T09:42:30.073Z,11.22
2023-04-25T09:44:57.649Z,12.79
2023-04-25T09:47:26.588Z,12.41
2023-04-25T09:49:54.555Z,11.56
2023-04-25T09:52:23.251Z,10.94
2023-04-25T09:54:52.286Z,10.60
2023-04-25T09:57:24.661Z,10.12
2023-04-25T09:59:53.807Z,10.09
2023-04-25T10:02:22.957Z,10.42
2023-04-25T10:04:56.617Z,10.30
2023-04-25T10:07:27.784Z,10.32
2023-04-25T10:10:05.549Z,10.73
2023-04-25T10:12:32.480Z,10.90
2023-04-25T10:15:00.590Z,10.77
2023-04-25T10:17:29.419Z,11.10
2023-04-25T10:19:56.634Z,11.18
2023-04-25T10:22:36.333Z,11.83
2023-04-25T10:25:07.210Z,13.51
2023-04-25T10:27:35.137Z,12.51
2023-04-25T10:30:04.972Z,11.63
2023-04-25T10:32:33.861Z,10.81
2023-04-25T10:35:14.456Z,11.04
2023-04-25T10:37:58.480Z,10.45
2023-04-25T10:40:25.138Z,10.39
2023-04-25T10:42:58.072Z,10.21
2023-04-25T10:45:24.803Z,10.12
2023-04-25T10:47:51.578Z,10.05
2023-04-25T10:50:18.972Z,10.06
2023-04-25T10:52:45.921Z,10.39
2023-04-25T10:55:12.829Z,10.56
2023-04-25T10:57:45.303Z,10.42
2023-04-25T11:00:19.743Z,10.56
2023-04-25T11:02:48.105Z,11.21
2023-04-25T11:05:24.456Z,11.04
2023-04-25T11:08:03.802Z,11.22
2023-04-25T11:10:37.546Z,11.32
2023-04-25T11:13:04.908Z,12.90
2023-04-25T11:15:31.605Z,12.76
2023-04-25T11:17:58.246Z,12.18
2023-04-25T11:20:28.504Z,12.49
2023-04-25T11:22:58.262Z,12.24
2023-04-25T11:25:26.185Z,11.83
2023-04-25T11:27:53.736Z,12.62
2023-04-25T11:30:21.963Z,13.31
2023-04-25T11:32:48.987Z,13.20
2023-04-25T11:35:16.452Z,12.80
2023-04-25T11:37:45.005Z,12.69
2023-04-25T11:40:12.857Z,12.62
2023-04-25T11:42:48.825Z,12.45
2023-04-25T11:45:16.068Z,12.59
2023-04-25T11:47:43.041Z,12.59
2023-04-25T11:50:10.396Z,12.86
2023-04-25T11:52:48.060Z,13.57
2023-04-25T11:55:17.586Z,14.22
2023-04-25T11:57:45.724Z,14.44
2023-04-25T12:00:22.796Z,14.44
2023-04-25T12:02:54.445Z,14.40
2023-04-25T12:07:54.208Z,13.43
2023-04-25T12:10:22.079Z,13.12
2023-04-25T12:12:49.966Z,13.34
2023-04-25T12:15:25.879Z,13.96
2023-04-25T12:17:55.022Z,14.16
2023-04-25T12:20:26.272Z,13.67
2023-04-25T12:22:53.568Z,13.28
2023-04-25T12:25:36.664Z,13.46
2023-04-25T12:28:15.333Z,13.38
2023-04-25T12:30:59.066Z,13.09
2023-04-25T12:33:28.753Z,12.45
2023-04-25T12:35:56.154Z,12.31
2023-04-25T12:38:23.641Z,11.94
2023-04-25T12:40:51.109Z,11.48
2023-04-25T12:43:18.352Z,11.34
2023-04-25T12:45:46.410Z,11.32
2023-04-25T12:48:14.079Z,10.95
2023-04-25T12:50:40.837Z,10.80
2023-04-25T12:53:07.427Z,11.06
2023-04-25T12:55:34.145Z,11.07
2023-04-25T12:58:02.080Z,11.08
2023-04-25T13:00:28.695Z,11.01
2023-04-25T13:02:55.603Z,11.10
2023-04-25T13:05:23.015Z,11.43
2023-04-25T13:07:52.586Z,11.29
2023-04-25T13:10:19.253Z,11.53
2023-04-25T13:12:47.465Z,12.11
2023-04-25T13:15:14.178Z,12.04
2023-04-25T13:17:41.507Z,12.59
2023-04-25T13:20:11.999Z,12.18
2023-04-25T13:22:39.844Z,12.61
2023-04-25T13:25:07.604Z,12.97
2023-04-25T13:27:35.060Z,13.34
2023-04-25T13:30:05.854Z,13.88
2023-04-25T13:32:32.493Z,14.26
2023-04-25T13:35:00.888Z,12.93
2023-04-25T13:37:28.469Z,13.96
2023-04-25T13:39:56.501Z,14.34
2023-04-25T13:42:28.903Z,15.57
2023-04-25T13:44:56.103Z,14.30
2023-04-25T13:47:25.986Z,14.60
2023-04-25T13:49:52.632Z,14.68
2023-04-25T13:52:19.579Z,14.26
2023-04-25T13:54:46.303Z,14.73
2023-04-25T13:57:13.177Z,14.66
2023-04-25T13:59:40.490Z,14.73
2023-04-25T14:02:07.752Z,13.82
2023-04-25T14:04:34.692Z,13.44
2023-04-25T14:07:01.875Z,13.09
2023-04-25T14:09:28.551Z,12.21
2023-04-25T14:11:56.575Z,11.90
2023-04-25T14:14:24.598Z,11.89
2023-04-25T14:16:51.765Z,11.89
2023-04-25T14:19:22.412Z,12.28
2023-04-25T14:21:49.402Z,12.34
2023-04-25T14:24:16.153Z,12.89
2023-04-25T14:26:43.755Z,13.22
2023-04-25T14:29:13.245Z,13.94
2023-04-25T14:31:42.361Z,13.71
2023-04-25T14:34:12.083Z,13.68
2023-04-25T14:36:41.179Z,13.13
2023-04-25T14:39:07.807Z,12.59
2023-04-25T14:41:34.480Z,12.18
2023-04-25T14:44:01.067Z,12.27
2023-04-25T14:46:27.960Z,12.45
2023-04-25T14:48:56.988Z,12.73
2023-04-25T14:51:23.788Z,13.33
2023-04-25T14:53:51.918Z,14.33
2023-04-25T14:56:18.825Z,14.52
2023-04-25T14:58:46.695Z,13.68
2023-04-25T15:01:14.157Z,14.19
2023-04-25T15:03:43.964Z,14.23
2023-04-25T15:06:11.007Z,14.33
2023-04-25T15:08:37.783Z,14.17
2023-04-25T15:11:04.779Z,15.01
2023-04-25T15:13:32.639Z,14.81
2023-04-25T15:15:59.252Z,14.40
2023-04-25T15:18:26.011Z,13.48
2023-04-25T15:20:55.158Z,13.79
2023-04-25T15:23:22.791Z,14.25
2023-04-25T15:25:50.985Z,13.72
2023-04-25T15:28:17.937Z,12.97
2023-04-25T15:30:44.919Z,13.09
2023-04-25T15:33:11.835Z,12.71
2023-04-25T15:35:38.566Z,12.48
2023-04-25T15:38:05.513Z,12.69
2023-04-25T15:40:32.213Z,12.65
2023-04-25T15:42:59.753Z,12.13
2023-04-25T15:45:27.083Z,11.97
2023-04-25T15:47:57.083Z,12.01
2023-04-25T15:50:24.228Z,12.25
2023-04-25T15:52:51.879Z,12.58
2023-04-25T15:55:19.697Z,12.49
2023-04-25T15:57:46.256Z,12.25
2023-04-25T16:00:15.265Z,12.14
2023-04-25T16:02:44.311Z,11.59
2023-04-25T16:05:13.227Z,11.79
2023-04-25T16:07:41.929Z,11.71
2023-04-25T16:10:10.001Z,11.83
2023-04-25T16:12:37.225Z,12.08
2023-04-25T16:15:05.052Z,12.72
2023-04-25T16:17:33.457Z,13.31
2023-04-25T16:20:04.353Z,13.07
2023-04-25T16:22:32.002Z,13.48
2023-04-25T16:24:58.564Z,12.64
2023-04-25T16:27:25.798Z,12.20
2023-04-25T16:29:52.533Z,12.16
2023-04-25T16:32:19.730Z,12.00
2023-04-25T16:34:46.596Z,11.49
2023-04-25T16:37:13.524Z,11.55
2023-04-25T16:39:41.474Z,11.49
2023-04-25T16:42:08.113Z,12.27
2023-04-25T16:44:35.572Z,12.86
2023-04-25T16:47:02.664Z,13.36
2023-04-25T16:49:29.456Z,13.26
2023-04-25T16:51:56.277Z,12.93
2023-04-25T16:54:24.745Z,12.83
2023-04-25T16:56:52.732Z,13.04
2023-04-25T16:59:19.921Z,13.17
2023-04-25T17:01:46.601Z,12.76
2023-04-25T17:04:13.429Z,12.52
2023-04-25T17:06:40.198Z,12.79
2023-04-25T17:09:06.890Z,13.27
2023-04-25T17:11:33.692Z,12.89
2023-04-25T17:14:01.507Z,12.72
2023-04-25T17:16:36.741Z,13.22
2023-04-25T17:19:06.938Z,12.69
2023-04-25T17:21:34.816Z,12.25
2023-04-25T17:24:01.572Z,12.31
2023-04-25T17:26:28.933Z,12.25
2023-04-25T17:28:58.687Z,12.16
2023-04-25T17:31:26.295Z,11.97
2023-04-25T17:33:53.095Z,12.18
2023-04-25T17:36:19.986Z,12.18
2023-04-25T17:38:47.178Z,11.75
2023-04-25T17:41:15.180Z,11.82
2023-04-25T17:43:42.293Z,11.86
2023-04-25T17:46:09.090Z,11.80
2023-04-25T17:48:36.760Z,11.75
2023-04-25T17:51:03.479Z,11.69
2023-04-25T17:53:30.325Z,11.66
2023-04-25T18:14:46.275Z,10.48
2023-04-25T18:17:14.638Z,10.60
2023-04-25T18:19:43.119Z,10.50
2023-04-25T18:22:10.225Z,10.30
2023-04-25T18:24:37.578Z,10.29
2023-04-25T18:27:06.860Z,10.39
2023-04-25T18:29:34.289Z,10.48
2023-04-25T18:32:01.689Z,10.28
2023-04-25T18:34:28.456Z,10.06
2023-04-25T18:36:57.353Z,9.99
2023-04-25T18:39:26.074Z,10.03
2023-04-25T18:41:59.290Z,9.98
2023-04-25T18:44:34.018Z,9.99
2023-04-25T18:47:01.310Z,9.99
2023-04-25T18:49:28.534Z,9.94
2023-04-25T18:51:57.534Z,9.78
2023-04-25T18:54:24.156Z,9.74
2023-04-25T18:56:51.480Z,9.71
2023-04-25T18:59:18.486Z,9.60
2023-04-25T19:01:45.931Z,9.55
2023-04-25T19:04:12.689Z,9.44
2023-04-25T19:06:39.477Z,9.37
2023-04-25T19:09:10.422Z,9.39
2023-04-25T19:11:39.274Z,9.27
2023-04-25T19:14:05.885Z,9.24
2023-04-25T19:16:38.890Z,9.09
2023-04-25T19:19:07.443Z,9.05
2023-04-25T19:21:35.564Z,8.98
2023-04-25T19:24:06.789Z,8.98
2023-04-25T19:26:33.465Z,8.93
2023-04-25T19:29:14.760Z,8.86
2023-04-25T19:31:44.354Z,8.79
2023-04-25T19:34:11.712Z,8.79
2023-04-25T19:36:40.098Z,8.81
2023-04-25T19:39:07.857Z,8.68
2023-04-25T19:41:36.398Z,8.61
2023-04-25T19:44:08.611Z,8.61
2023-04-25T19:46:36.119Z,8.54
2023-04-25T19:49:07.082Z,8.45
2023-04-25T19:51:34.523Z,8.53
2023-04-25T19:54:01.229Z,8.47
2023-04-25T19:56:28.053Z,8.45
2023-04-25T19:58:54.937Z,8.33
2023-04-25T20:01:22.584Z,8.26
2023-04-25T20:03:52.972Z,8.33
2023-04-25T20:06:19.993Z,8.12
2023-04-25T20:08:47.448Z,8.13
2023-04-25T20:11:15.404Z,8.09
2023-04-25T20:13:46.805Z,8.03
2023-04-25T20:16:19.973Z,7.94
2023-04-25T20:18:50.759Z,7.87
2023-04-25T20:21:17.792Z,7.87
2023-04-25T20:23:44.785Z,7.79
2023-04-25T20:26:12.836Z,7.76
2023-04-25T20:28:39.589Z,7.81
2023-04-25T20:31:06.706Z,7.78
2023-04-25T20:33:36.804Z,7.73
2023-04-25T20:36:03.725Z,7.75
2023-04-25T20:38:31.614Z,7.65
2023-04-25T20:40:58.585Z,7.65
2023-04-25T20:43:27.025Z,7.59
2023-04-25T20:45:54.910Z,7.56
2023-04-25T20:48:22.157Z,7.48
2023-04-25T20:50:48.863Z,7.48
2023-04-25T20:53:15.730Z,7.42
2023-04-25T20:55:42.658Z,7.35
2023-04-25T20:58:09.507Z,7.34
2023-04-25T21:00:36.433Z,7.28
2023-04-25T21:03:05.173Z,7.25
2023-04-25T21:05:33.332Z,7.21
2023-04-25T21:07:59.937Z,7.23
2023-04-25T21:10:26.660Z,7.17
2023-04-25T21:12:53.798Z,7.07
2023-04-25T21:15:21.475Z,7.10
2023-04-25T21:17:52.742Z,7.07
2023-04-25T21:20:20.921Z,7.04
2023-04-25T21:22:51.810Z,6.93
2023-04-25T21:25:25.525Z,6.97
2023-04-25T21:27:53.055Z,6.83
2023-04-25T21:30:23.381Z,6.79
2023-04-25T21:32:51.698Z,6.76
2023-04-25T21:35:23.098Z,6.71
2023-04-25T21:37:51.680Z,6.77
2023-04-25T21:40:18.951Z,6.76
2023-04-25T21:42:51.950Z,6.72
2023-04-25T21:45:22.226Z,6.65
2023-04-25T21:47:49.353Z,6.65
2023-04-25T21:50:16.470Z,6.59
2023-04-25T21:52:43.426Z,6.56
2023-04-25T21:55:11.253Z,6.52
2023-04-25T21:57:43.749Z,6.59
2023-04-25T22:00:28.943Z,6.55
2023-04-25T22:02:55.708Z,6.48
2023-04-25T22:05:24.100Z,6.49
2023-04-25T22:07:51.779Z,6.42
2023-04-25T22:10:19.846Z,6.46
2023-04-25T22:12:47.887Z,6.38
2023-04-25T22:15:14.435Z,6.32
2023-04-25T22:17:41.169Z,6.34
2023-04-25T22:20:13.536Z,6.28
2023-04-25T22:22:41.836Z,6.22
2023-04-25T22:25:17.986Z,6.22
2023-04-25T22:27:44.989Z,6.13
2023-04-25T22:30:14.980Z,6.15
2023-04-25T22:32:42.249Z,6.05
2023-04-25T22:35:09.387Z,6.01
2023-04-25T22:37:37.266Z,6.01
2023-04-25T22:40:07.273Z,5.97
2023-04-25T22:42:38.716Z,5.86
2023-04-25T22:45:07.135Z,5.93
2023-04-25T22:47:35.223Z,5.89
2023-04-25T22:50:05.856Z,5.91
2023-04-25T22:52:35.497Z,5.84
2023-04-25T22:55:03.449Z,6.08
2023-04-25T22:57:30.575Z,5.95
2023-04-25T22:59:57.777Z,5.86
2023-04-25T23:02:28.050Z,5.86
2023-04-25T23:04:57.488Z,5.82
2023-04-25T23:07:25.451Z,5.73
2023-04-25T23:09:52.202Z,5.66
2023-04-25T23:12:19.392Z,5.70
2023-04-25T23:14:53.724Z,5.47
2023-04-25T23:17:20.681Z,5.35
2023-04-25T23:19:48.436Z,5.18
2023-04-25T23:22:15.187Z,5.04
2023-04-25T23:24:42.154Z,5.04
2023-04-25T23:27:08.783Z,5.01
2023-04-25T23:29:35.642Z,5.03
2023-04-25T23:32:02.280Z,5.11
2023-04-25T23:34:32.503Z,5.05
2023-04-25T23:37:01.482Z,4.88
2023-04-25T23:39:30.070Z,4.77
2023-04-25T23:41:57.871Z,4.76
2023-04-25T23:44:24.547Z,4.78
2023-04-25T23:46:53.931Z,4.67
2023-04-25T23:49:21.142Z,4.50
2023-04-25T23:51:47.812Z,4.30
2023-04-25T23:54:16.871Z,4.26
2023-04-25T23:56:43.849Z,4.28
